createdAt,value
2022-08-23T00:03:26.951Z,7.00
2022-08-23T00:08:27.637Z,6.85
2022-08-23T00:13:47.613Z,7.80
2022-08-23T00:18:50.554Z,7.55
2022-08-23T00:23:51.289Z,7.57
2022-08-23T00:28:51.982Z,7.13
2022-08-23T00:33:54.441Z,6.93
2022-08-23T00:38:55.238Z,7.15
2022-08-23T00:44:16.682Z,7.15
2022-08-23T00:49:20.537Z,7.45
2022-08-23T00:54:23.350Z,6.45
2022-08-23T00:59:24.453Z,7.30
2022-08-23T01:04:28.384Z,8.10
2022-08-23T01:09:29.824Z,7.63
2022-08-23T01:14:35.138Z,7.60
2022-08-23T01:19:39.776Z,7.70
2022-08-23T01:25:05.856Z,7.30
2022-08-23T01:30:08.970Z,7.45
2022-08-23T01:35:11.056Z,7.25
2022-08-23T01:40:14.619Z,7.53
2022-08-23T01:45:16.228Z,7.00
2022-08-23T01:50:18.962Z,7.80
2022-08-23T01:55:21.849Z,7.65
2022-08-23T02:00:25.955Z,6.72
2022-08-23T02:05:27.540Z,7.63
2022-08-23T02:10:29.838Z,7.55
2022-08-23T02:15:32.069Z,7.78
2022-08-23T02:20:32.886Z,7.47
2022-08-23T02:25:34.930Z,7.13
2022-08-23T02:30:35.873Z,7.43
2022-08-23T02:35:38.753Z,7.38
2022-08-23T02:40:42.442Z,7.82
2022-08-23T02:45:43.212Z,7.57
2022-08-23T02:50:44.021Z,7.75
2022-08-23T02:55:47.728Z,8.10
2022-08-23T03:00:49.183Z,7.85
2022-08-23T03:05:50.226Z,7.68
2022-08-23T03:10:54.438Z,7.43
2022-08-23T03:15:55.556Z,7.63
2022-08-23T03:20:56.307Z,7.53
2022-08-23T03:25:59.762Z,7.22
2022-08-23T03:31:05.745Z,7.70
2022-08-23T03:36:14.135Z,7.40
2022-08-23T03:41:17.564Z,7.20
2022-08-23T03:46:23.974Z,6.65
2022-08-23T03:51:31.613Z,6.15
2022-08-23T03:56:38.652Z,6.90
2022-08-23T04:01:39.406Z,6.47
2022-08-23T04:06:40.246Z,7.25
2022-08-23T04:11:42.993Z,7.38
2022-08-23T04:16:44.463Z,6.38
2022-08-23T04:21:52.110Z,6.55
2022-08-23T04:26:56.841Z,7.57
2022-08-23T04:31:58.050Z,6.35
2022-08-23T04:36:59.410Z,6.35
2022-08-23T04:42:21.621Z,6.25
2022-08-23T04:47:24.724Z,6.45
2022-08-23T04:52:28.067Z,6.05
2022-08-23T04:57:31.741Z,6.10
2022-08-23T05:02:33.185Z,6.25
2022-08-23T05:07:42.495Z,5.78
2022-08-23T05:12:47.195Z,6.47
2022-08-23T05:17:48.481Z,5.55
2022-08-23T05:22:50.726Z,6.60
2022-08-23T05:28:01.254Z,5.90
2022-08-23T05:33:03.048Z,6.82
2022-08-23T05:38:08.612Z,6.03
2022-08-23T05:43:10.773Z,6.65
2022-08-23T05:48:12.014Z,6.60
2022-08-23T05:53:19.870Z,7.40
2022-08-23T05:58:23.099Z,7.45
2022-08-23T06:03:24.320Z,6.85
2022-08-23T06:08:26.673Z,8.10
2022-08-23T06:13:28.908Z,7.28
2022-08-23T06:18:29.592Z,7.05
2022-08-23T06:23:48.534Z,8.73
2022-08-23T06:28:54.229Z,6.72
2022-08-23T06:33:55.079Z,6.82
2022-08-23T06:39:13.679Z,7.43
2022-08-23T06:44:30.739Z,8.32
2022-08-23T06:49:57.967Z,7.00
2022-08-23T06:55:20.045Z,7.45
2022-08-23T07:00:55.463Z,7.20
2022-08-23T07:06:07.903Z,6.85
2022-08-23T07:11:11.318Z,6.68
2022-08-23T07:16:18.057Z,7.07
2022-08-23T07:21:19.831Z,7.75
2022-08-23T07:26:21.569Z,7.60
2022-08-23T07:31:27.286Z,7.93
2022-08-23T07:36:30.364Z,7.35
2022-08-23T07:41:32.716Z,7.32
2022-08-23T07:46:37.963Z,7.72
2022-08-23T07:51:41.717Z,8.00
2022-08-23T07:56:43.755Z,7.75
2022-08-23T08:02:04.500Z,7.13
2022-08-23T08:07:22.079Z,7.35
2022-08-23T08:12:32.046Z,7.55
2022-08-23T08:17:40.573Z,7.97
2022-08-23T08:22:58.706Z,8.32
2022-08-23T08:28:19.838Z,8.68
2022-08-23T08:33:22.145Z,9.13
2022-08-23T08:38:28.815Z,10.07
2022-08-23T08:43:43.177Z,10.32
2022-08-23T08:48:50.387Z,11.27
2022-08-23T08:53:52.776Z,11.52
2022-08-23T08:59:04.828Z,10.80
2022-08-23T09:04:08.125Z,11.27
2022-08-23T09:09:23.193Z,11.52
2022-08-23T09:14:44.155Z,10.73
2022-08-23T09:19:47.882Z,11.32
2022-08-23T09:24:48.657Z,8.25
2022-08-23T09:30:01.176Z,10.15
2022-08-23T09:35:11.337Z,8.70
2022-08-23T09:40:18.823Z,9.23
2022-08-23T09:45:34.618Z,9.00
2022-08-23T09:50:43.293Z,8.07
2022-08-23T09:55:51.026Z,8.10
2022-08-23T10:01:13.716Z,7.50
2022-08-23T10:06:31.460Z,7.88
2022-08-23T10:11:40.777Z,7.63
2022-08-23T10:16:59.970Z,7.60
2022-08-23T10:22:09.696Z,7.43
2022-08-23T10:27:45.074Z,6.93
2022-08-23T10:32:57.033Z,7.22
2022-08-23T10:38:19.474Z,6.63
2022-08-23T10:43:33.615Z,7.18
2022-08-23T10:48:38.404Z,5.53
2022-08-23T10:53:50.116Z,5.47
2022-08-23T10:58:54.468Z,4.60
2022-08-23T11:04:03.164Z,4.10
2022-08-23T11:09:31.518Z,4.60
2022-08-23T11:14:38.909Z,4.80
2022-08-23T11:19:52.927Z,4.57
2022-08-23T11:25:01.683Z,4.57
2022-08-23T11:30:46.417Z,4.50
2022-08-23T11:35:56.549Z,4.13
2022-08-23T11:41:14.491Z,4.70
2022-08-23T11:46:34.863Z,4.18
2022-08-23T11:51:52.398Z,4.32
2022-08-23T11:57:05.574Z,4.10
2022-08-23T12:02:32.137Z,4.82
2022-08-23T12:07:52.481Z,5.55
2022-08-23T12:13:22.910Z,5.60
2022-08-23T12:18:26.455Z,5.28
2022-08-23T12:23:28.403Z,6.57
2022-08-23T12:28:46.506Z,6.82
2022-08-23T12:34:08.631Z,6.38
2022-08-23T12:39:20.807Z,7.43
2022-08-23T12:44:24.867Z,6.18
2022-08-23T12:49:33.938Z,6.43
2022-08-23T12:54:38.606Z,5.75
2022-08-23T12:59:44.727Z,6.68
2022-08-23T13:04:47.220Z,7.18
2022-08-23T13:09:53.621Z,6.68
2022-08-23T13:15:01.394Z,7.35
2022-08-23T13:20:21.724Z,8.45
2022-08-23T13:25:29.867Z,7.78
2022-08-23T13:30:36.278Z,7.25
2022-08-23T13:35:40.583Z,6.57
2022-08-23T13:40:46.864Z,6.45
2022-08-23T13:45:50.250Z,6.38
2022-08-23T13:50:53.041Z,5.57
2022-08-23T13:55:58.536Z,6.10
2022-08-23T14:01:00.765Z,5.65
2022-08-23T14:06:02.933Z,4.82
2022-08-23T14:11:04.514Z,5.18
2022-08-23T14:21:30.624Z,5.10
2022-08-23T14:26:31.364Z,4.80
2022-08-23T14:31:32.801Z,4.45
2022-08-23T14:36:34.957Z,4.68
2022-08-23T14:41:35.723Z,4.70
2022-08-23T14:46:36.425Z,4.60
2022-08-23T14:51:46.093Z,3.85
2022-08-23T14:56:46.955Z,4.03
2022-08-23T15:01:49.817Z,4.00
2022-08-23T15:07:16.593Z,3.72
2022-08-23T15:12:57.244Z,3.92
2022-08-23T15:17:37.435Z,3.53
2022-08-23T15:22:40.077Z,3.75
2022-08-23T15:27:46.759Z,3.65
2022-08-23T15:32:52.631Z,3.95
2022-08-23T15:37:59.448Z,4.28
2022-08-23T15:43:00.241Z,4.60
2022-08-23T15:48:04.447Z,4.50
2022-08-23T15:53:06.957Z,3.50
2022-08-23T15:58:07.678Z,4.30
2022-08-23T16:03:18.880Z,4.10
2022-08-23T16:08:28.222Z,3.28
2022-08-23T16:13:29.043Z,3.55
2022-08-23T16:18:29.810Z,3.60
2022-08-23T16:23:31.825Z,4.00
2022-08-23T16:28:32.654Z,3.50
2022-08-23T16:33:33.366Z,3.92
2022-08-23T16:38:35.817Z,3.78
2022-08-23T16:43:36.570Z,2.92
2022-08-23T16:48:37.293Z,3.45
2022-08-23T16:53:40.000Z,3.08
2022-08-23T16:58:41.650Z,3.20
2022-08-23T17:03:43.128Z,3.95
2022-08-23T17:08:45.174Z,4.15
2022-08-23T17:13:46.724Z,4.15
2022-08-23T17:18:47.802Z,3.25
2022-08-23T17:23:56.265Z,4.20
2022-08-23T17:28:57.450Z,3.97
2022-08-23T17:34:03.046Z,3.60
2022-08-23T17:39:07.845Z,3.58
2022-08-23T17:44:09.805Z,4.03
2022-08-23T17:49:12.144Z,3.58
2022-08-23T17:54:16.005Z,4.03
2022-08-23T17:59:17.180Z,3.97
2022-08-23T18:04:18.251Z,4.50
2022-08-23T18:09:20.659Z,4.60
2022-08-23T18:14:23.301Z,4.07
2022-08-23T18:19:25.326Z,4.10
2022-08-23T18:24:27.723Z,4.55
2022-08-23T18:29:29.777Z,5.05
2022-08-23T18:34:30.571Z,4.70
2022-08-23T18:39:32.744Z,5.40
2022-08-23T18:44:34.056Z,5.35
2022-08-23T18:49:35.935Z,5.90
2022-08-23T18:54:38.057Z,5.55
2022-08-23T18:59:38.908Z,6.07
2022-08-23T19:04:39.605Z,6.32
2022-08-23T19:09:41.791Z,6.85
2022-08-23T19:14:42.803Z,7.18
2022-08-23T19:19:43.487Z,6.72
2022-08-23T19:24:45.651Z,6.45
2022-08-23T19:29:46.368Z,7.63
2022-08-23T19:34:47.570Z,7.57
2022-08-23T19:39:49.837Z,7.63
2022-08-23T19:44:51.116Z,7.85
2022-08-23T19:49:52.042Z,7.28
2022-08-23T19:54:57.939Z,6.60
2022-08-23T20:00:15.722Z,8.43
2022-08-23T20:05:20.312Z,6.75
2022-08-23T20:10:23.213Z,7.40
2022-08-23T20:15:24.013Z,6.45
2022-08-23T20:20:24.685Z,7.10
2022-08-23T20:25:26.714Z,5.72
2022-08-23T20:30:27.583Z,7.38
2022-08-23T20:35:28.275Z,6.65
2022-08-23T20:40:30.427Z,7.20
2022-08-23T20:45:31.350Z,8.07
2022-08-23T20:50:32.156Z,7.13
2022-08-23T20:55:34.296Z,7.03
2022-08-23T21:00:35.321Z,7.32
2022-08-23T21:05:36.091Z,7.25
2022-08-23T21:10:38.912Z,7.20
2022-08-23T21:15:39.998Z,7.32
2022-08-23T21:20:40.751Z,7.50
2022-08-23T21:25:42.755Z,7.28
2022-08-23T21:30:43.503Z,7.60
2022-08-23T21:35:44.726Z,8.30
2022-08-23T21:40:46.753Z,8.60
2022-08-23T21:45:47.431Z,8.05
2022-08-23T21:50:49.119Z,8.60
2022-08-23T21:55:51.277Z,8.10
2022-08-23T22:00:53.809Z,7.85
2022-08-23T22:05:54.564Z,8.10
2022-08-23T22:10:57.625Z,8.30
2022-08-23T22:16:00.364Z,8.27
2022-08-23T22:21:01.415Z,9.30
2022-08-23T22:26:06.229Z,8.30
2022-08-23T22:31:08.545Z,8.27
2022-08-23T22:36:14.401Z,8.65
2022-08-23T22:41:20.649Z,7.93
2022-08-23T22:46:22.436Z,8.35
2022-08-23T22:51:25.532Z,8.10
2022-08-23T22:56:30.088Z,7.80
2022-08-23T23:01:34.078Z,7.35
2022-08-23T23:06:35.396Z,7.82
2022-08-23T23:11:40.245Z,8.43
2022-08-23T23:16:41.779Z,8.38
2022-08-23T23:21:45.192Z,7.90
2022-08-23T23:26:48.303Z,8.25
2022-08-23T23:31:49.360Z,7.60
2022-08-23T23:36:50.356Z,8.85
2022-08-23T23:41:52.369Z,8.10
2022-08-23T23:46:53.038Z,7.95
2022-08-23T23:51:53.769Z,7.63
2022-08-23T23:56:56.757Z,7.13
